createdAt,value
2022-10-09T00:00:47.681Z,10.27
2022-10-09T00:03:17.070Z,10.08
2022-10-09T00:05:45.373Z,10.21
2022-10-09T00:08:14.205Z,10.33
2022-10-09T00:10:42.928Z,10.14
2022-10-09T00:13:10.541Z,9.94
2022-10-09T00:15:41.003Z,9.92
2022-10-09T00:18:08.668Z,9.72
2022-10-09T00:20:38.137Z,9.41
2022-10-09T00:23:05.668Z,9.58
2022-10-09T00:25:35.722Z,9.97
2022-10-09T00:28:04.288Z,9.89
2022-10-09T00:30:32.388Z,9.89
2022-10-09T00:32:59.904Z,9.68
2022-10-09T00:35:27.415Z,10.13
2022-10-09T00:37:54.876Z,10.13
2022-10-09T00:40:22.362Z,10.13
2022-10-09T00:42:57.029Z,9.92
2022-10-09T00:45:25.033Z,10.04
2022-10-09T00:47:55.402Z,9.97
2022-10-09T00:50:25.143Z,10.00
2022-10-09T00:52:55.969Z,10.06
2022-10-09T00:55:24.920Z,10.25
2022-10-09T00:57:55.713Z,10.18
2022-10-09T01:00:23.921Z,10.39
2022-10-09T01:02:51.955Z,10.27
2022-10-09T01:05:20.667Z,10.15
2022-10-09T01:07:54.045Z,10.02
2022-10-09T01:10:31.122Z,9.78
2022-10-09T01:13:07.460Z,9.87
2022-10-09T01:15:42.437Z,9.52
2022-10-09T01:18:13.977Z,9.31
2022-10-09T01:20:50.230Z,9.63
2022-10-09T01:23:46.234Z,9.47
2022-10-09T01:26:27.587Z,9.86
2022-10-09T01:29:00.302Z,9.87
2022-10-09T01:31:31.515Z,9.78
2022-10-09T01:34:00.643Z,9.43
2022-10-09T01:36:30.305Z,9.51
2022-10-09T01:39:00.700Z,9.63
2022-10-09T01:41:28.410Z,9.73
2022-10-09T01:43:57.347Z,9.74
2022-10-09T01:46:28.483Z,9.55
2022-10-09T01:49:06.647Z,9.48
2022-10-09T01:51:41.592Z,9.77
2022-10-09T01:54:14.123Z,9.34
2022-10-09T01:56:45.110Z,9.04
2022-10-09T01:59:16.385Z,8.92
2022-10-09T02:01:46.299Z,8.82
2022-10-09T02:04:17.936Z,8.76
2022-10-09T02:06:47.788Z,9.09
2022-10-09T02:09:17.921Z,9.19
2022-10-09T02:11:52.387Z,9.16
2022-10-09T02:14:21.310Z,9.17
2022-10-09T02:16:55.021Z,8.92
2022-10-09T02:19:26.500Z,9.15
2022-10-09T02:21:58.971Z,9.30
2022-10-09T02:24:27.013Z,9.20
2022-10-09T02:26:57.368Z,9.62
2022-10-09T02:29:26.645Z,9.59
2022-10-09T02:31:54.271Z,9.73
2022-10-09T02:34:22.383Z,9.70
2022-10-09T02:36:50.024Z,9.60
2022-10-09T02:39:17.812Z,9.38
2022-10-09T02:41:45.273Z,9.51
2022-10-09T02:44:12.753Z,9.59
2022-10-09T02:46:41.671Z,9.65
2022-10-09T02:49:09.362Z,9.77
2022-10-09T02:51:36.935Z,9.51
2022-10-09T02:54:05.339Z,9.40
2022-10-09T02:56:36.810Z,9.18
2022-10-09T02:59:06.542Z,9.05
2022-10-09T03:01:34.170Z,9.24
2022-10-09T03:04:03.502Z,9.20
2022-10-09T03:06:30.956Z,9.06
2022-10-09T03:08:58.841Z,9.10
2022-10-09T03:11:27.577Z,8.90
2022-10-09T03:13:55.298Z,8.84
2022-10-09T03:16:24.496Z,8.95
2022-10-09T03:18:53.307Z,8.96
2022-10-09T03:21:23.921Z,9.44
2022-10-09T03:23:53.210Z,9.03
2022-10-09T03:26:23.390Z,8.94
2022-10-09T03:28:52.519Z,9.07
2022-10-09T03:31:50.060Z,8.86
2022-10-09T03:34:11.646Z,8.80
2022-10-09T03:36:40.478Z,8.84
2022-10-09T03:39:08.063Z,8.92
2022-10-09T03:41:35.713Z,8.88
2022-10-09T03:44:03.215Z,8.74
2022-10-09T03:46:30.705Z,8.99
2022-10-09T03:48:58.210Z,9.15
2022-10-09T03:51:25.639Z,9.20
2022-10-09T03:53:54.435Z,9.20
2022-10-09T03:56:21.885Z,8.69
2022-10-09T03:58:49.343Z,8.63
2022-10-09T04:01:16.890Z,8.80
2022-10-09T04:03:44.406Z,8.78
2022-10-09T04:06:12.360Z,8.90
2022-10-09T04:08:39.880Z,9.07
2022-10-09T04:11:08.797Z,8.87
2022-10-09T04:13:36.380Z,8.66
2022-10-09T04:16:04.014Z,8.61
2022-10-09T04:18:31.667Z,8.61
2022-10-09T04:20:59.147Z,8.82
2022-10-09T04:23:27.979Z,8.96
2022-10-09T04:25:56.406Z,9.09
2022-10-09T04:28:25.548Z,9.09
2022-10-09T04:30:53.329Z,8.79
2022-10-09T04:33:21.053Z,8.88
2022-10-09T04:35:52.238Z,8.92
2022-10-09T04:38:20.076Z,8.92
2022-10-09T04:40:57.186Z,9.14
2022-10-09T04:43:26.452Z,8.96
2022-10-09T04:45:54.717Z,9.26
2022-10-09T04:48:22.285Z,9.19
2022-10-09T04:50:49.786Z,9.37
2022-10-09T04:53:17.406Z,9.21
2022-10-09T04:55:45.560Z,8.91
2022-10-09T04:58:14.607Z,9.16
2022-10-09T05:00:45.315Z,8.96
2022-10-09T05:03:13.401Z,8.96
2022-10-09T05:05:40.867Z,9.13
2022-10-09T05:08:08.353Z,9.14
2022-10-09T05:10:35.815Z,9.18
2022-10-09T05:13:03.309Z,9.33
2022-10-09T05:15:30.757Z,9.33
2022-10-09T05:17:59.588Z,9.33
2022-10-09T05:20:27.146Z,9.28
2022-10-09T05:22:54.652Z,9.22
2022-10-09T05:25:22.334Z,8.92
2022-10-09T05:27:49.779Z,9.09
2022-10-09T05:30:17.317Z,8.74
2022-10-09T05:32:44.783Z,8.69
2022-10-09T05:35:13.546Z,8.62
2022-10-09T05:37:41.074Z,8.69
2022-10-09T05:40:09.821Z,8.79
2022-10-09T05:42:37.273Z,9.12
2022-10-09T05:45:05.160Z,9.32
2022-10-09T05:47:32.631Z,9.16
2022-10-09T05:50:00.084Z,9.22
2022-10-09T05:52:28.947Z,9.01
2022-10-09T05:54:57.081Z,9.19
2022-10-09T05:57:24.538Z,9.07
2022-10-09T05:59:52.001Z,9.19
2022-10-09T06:02:19.567Z,9.04
2022-10-09T06:04:47.086Z,8.83
2022-10-09T06:07:14.528Z,8.77
2022-10-09T06:09:43.367Z,8.83
2022-10-09T06:12:10.845Z,8.86
2022-10-09T06:14:38.302Z,9.09
2022-10-09T06:17:05.788Z,9.41
2022-10-09T06:19:33.354Z,9.41
2022-10-09T06:22:00.807Z,9.47
2022-10-09T06:24:29.527Z,9.52
2022-10-09T06:26:58.974Z,9.58
2022-10-09T06:29:27.071Z,9.48
2022-10-09T06:31:54.757Z,9.33
2022-10-09T06:34:22.420Z,9.45
2022-10-09T06:36:50.256Z,9.54
2022-10-09T06:39:17.780Z,9.54
2022-10-09T06:41:45.226Z,9.56
2022-10-09T06:44:17.172Z,9.70
2022-10-09T06:46:46.548Z,9.95
2022-10-09T06:49:13.997Z,9.97
2022-10-09T06:51:41.512Z,9.90
2022-10-09T06:54:12.929Z,9.94
2022-10-09T06:56:40.960Z,9.78
2022-10-09T06:59:09.489Z,9.96
2022-10-09T07:01:38.370Z,9.95
2022-10-09T07:04:08.220Z,10.30
2022-10-09T07:06:39.770Z,10.28
2022-10-09T07:09:09.955Z,10.26
2022-10-09T07:11:39.505Z,10.11
2022-10-09T07:14:08.894Z,10.53
2022-10-09T07:16:39.866Z,10.64
2022-10-09T07:19:10.875Z,10.99
2022-10-09T07:21:40.832Z,11.23
2022-10-09T07:24:08.687Z,11.31
2022-10-09T07:26:38.619Z,11.42
2022-10-09T07:29:07.639Z,11.51
2022-10-09T07:31:35.167Z,11.62
2022-10-09T07:34:06.138Z,11.75
2022-10-09T07:36:33.875Z,11.78
2022-10-09T07:39:01.569Z,11.83
2022-10-09T07:41:30.603Z,11.98
2022-10-09T07:43:58.751Z,11.88
2022-10-09T07:46:32.152Z,12.02
2022-10-09T07:49:01.378Z,12.11
2022-10-09T07:51:31.353Z,12.08
2022-10-09T07:54:00.167Z,12.28
2022-10-09T07:56:29.398Z,12.24
2022-10-09T07:58:58.799Z,12.38
2022-10-09T08:01:28.488Z,12.36
2022-10-09T08:03:56.736Z,12.53
2022-10-09T08:06:24.433Z,12.54
2022-10-09T08:08:54.621Z,12.64
2022-10-09T08:11:23.680Z,12.64
2022-10-09T08:13:54.673Z,12.69
2022-10-09T08:16:23.814Z,12.73
2022-10-09T08:18:55.645Z,12.72
2022-10-09T08:21:23.239Z,12.89
2022-10-09T08:23:55.251Z,12.88
2022-10-09T08:26:24.150Z,12.96
2022-10-09T08:28:52.926Z,12.85
2022-10-09T08:31:21.500Z,12.95
2022-10-09T08:33:52.235Z,12.99
2022-10-09T08:36:20.102Z,13.03
2022-10-09T08:38:48.439Z,13.18
2022-10-09T08:41:26.707Z,13.25
2022-10-09T08:44:01.630Z,13.31
2022-10-09T08:46:35.472Z,13.41
2022-10-09T08:49:05.383Z,13.56
2022-10-09T08:51:37.167Z,13.57
2022-10-09T08:54:10.442Z,13.52
2022-10-09T08:56:39.736Z,13.56
2022-10-09T08:59:07.346Z,13.68
2022-10-09T09:01:41.056Z,13.73
2022-10-09T09:04:33.635Z,13.74
2022-10-09T09:07:11.637Z,13.86
2022-10-09T09:09:47.923Z,13.99
2022-10-09T09:12:26.808Z,14.04
2022-10-09T09:15:07.788Z,14.09
2022-10-09T09:17:47.126Z,14.07
2022-10-09T09:20:21.009Z,14.16
2022-10-09T09:22:50.875Z,14.36
2022-10-09T09:25:22.596Z,14.25
2022-10-09T09:27:53.329Z,14.25
2022-10-09T09:30:32.142Z,14.38
2022-10-09T09:33:08.152Z,14.56
2022-10-09T09:35:46.822Z,14.62
2022-10-09T09:38:14.720Z,14.73
2022-10-09T09:40:46.786Z,14.85
2022-10-09T09:43:19.376Z,15.00
2022-10-09T09:45:48.267Z,15.06
2022-10-09T09:48:21.773Z,15.11
2022-10-09T09:51:10.099Z,15.30
2022-10-09T09:53:44.431Z,15.30
2022-10-09T09:56:12.327Z,15.44
2022-10-09T09:58:46.451Z,15.45
2022-10-09T10:01:22.629Z,15.48
2022-10-09T10:03:51.603Z,15.37
2022-10-09T10:06:22.850Z,15.39
2022-10-09T10:08:59.254Z,15.62
2022-10-09T10:11:27.027Z,15.66
2022-10-09T10:13:55.898Z,15.85
2022-10-09T10:16:27.519Z,16.03
2022-10-09T10:18:57.055Z,15.93
2022-10-09T10:21:24.769Z,16.07
2022-10-09T10:23:55.179Z,16.19
2022-10-09T10:26:27.628Z,16.29
2022-10-09T10:29:02.060Z,16.42
2022-10-09T10:31:42.622Z,16.52
2022-10-09T10:34:17.773Z,16.50
2022-10-09T10:36:45.724Z,16.60
2022-10-09T10:39:22.313Z,16.60
2022-10-09T10:41:54.614Z,16.69
2022-10-09T10:44:38.892Z,16.70
2022-10-09T10:47:11.732Z,16.67
2022-10-09T10:49:39.298Z,16.52
2022-10-09T10:52:21.427Z,16.73
2022-10-09T10:54:56.072Z,16.68
2022-10-09T10:57:32.094Z,16.85
2022-10-09T11:00:06.375Z,17.06
2022-10-09T11:02:57.363Z,17.23
2022-10-09T11:05:36.640Z,17.19
2022-10-09T11:08:14.178Z,17.36
2022-10-09T11:10:54.971Z,17.40
2022-10-09T11:13:26.734Z,17.58
2022-10-09T11:16:06.968Z,17.63
2022-10-09T11:18:52.965Z,17.72
2022-10-09T11:21:33.148Z,17.83
2022-10-09T11:24:24.005Z,17.88
2022-10-09T11:27:03.603Z,17.81
2022-10-09T11:29:37.573Z,17.83
2022-10-09T11:32:13.582Z,17.93
2022-10-09T11:34:47.006Z,18.09
2022-10-09T11:37:20.465Z,18.12
2022-10-09T11:39:48.033Z,18.02
2022-10-09T11:42:21.305Z,18.03
2022-10-09T11:45:01.828Z,18.04
2022-10-09T11:47:38.297Z,18.25
2022-10-09T11:50:24.487Z,18.42
2022-10-09T11:52:58.258Z,18.17
2022-10-09T11:55:28.008Z,18.20
2022-10-09T11:57:55.824Z,18.40
2022-10-09T12:00:31.870Z,18.48
2022-10-09T12:03:02.427Z,18.56
2022-10-09T12:05:37.185Z,18.58
2022-10-09T12:08:19.356Z,18.64
2022-10-09T12:10:53.938Z,18.67
2022-10-09T12:13:43.468Z,18.74
2022-10-09T12:16:29.997Z,18.81
2022-10-09T12:19:01.574Z,18.77
2022-10-09T12:21:33.436Z,18.83
2022-10-09T12:24:01.343Z,18.85
2022-10-09T12:26:30.009Z,18.90
2022-10-09T12:29:01.150Z,18.91
2022-10-09T12:31:32.853Z,18.96
2022-10-09T12:34:05.707Z,19.05
2022-10-09T12:36:34.517Z,19.00
2022-10-09T12:39:13.675Z,19.03
2022-10-09T12:41:45.582Z,19.07
2022-10-09T12:44:22.936Z,19.08
2022-10-09T12:46:50.554Z,19.15
2022-10-09T12:49:22.436Z,19.11
2022-10-09T12:51:56.611Z,19.06
2022-10-09T12:54:25.901Z,19.16
2022-10-09T12:56:54.633Z,19.29
2022-10-09T12:59:24.088Z,19.33
2022-10-09T13:01:56.321Z,19.38
2022-10-09T13:04:31.209Z,19.34
2022-10-09T13:07:00.323Z,19.36
2022-10-09T13:09:30.257Z,19.43
2022-10-09T13:12:00.614Z,19.30
2022-10-09T13:14:34.690Z,19.29
2022-10-09T13:17:03.223Z,19.35
2022-10-09T13:19:35.205Z,19.40
2022-10-09T13:22:08.647Z,19.31
2022-10-09T13:24:36.872Z,19.33
2022-10-09T13:27:05.441Z,19.23
2022-10-09T13:29:32.965Z,19.08
2022-10-09T13:32:00.432Z,19.30
2022-10-09T13:34:28.927Z,19.32
2022-10-09T13:36:57.800Z,19.35
2022-10-09T13:39:25.290Z,19.48
2022-10-09T13:41:55.563Z,19.51
2022-10-09T13:44:23.061Z,19.44
2022-10-09T13:46:50.610Z,19.55
2022-10-09T13:49:18.128Z,19.55
2022-10-09T13:51:45.601Z,19.58
2022-10-09T13:54:14.430Z,19.64
2022-10-09T13:56:42.177Z,19.71
2022-10-09T13:59:09.657Z,19.63
2022-10-09T14:01:37.174Z,19.68
2022-10-09T14:04:04.720Z,19.50
2022-10-09T14:06:35.110Z,19.48
2022-10-09T14:09:02.813Z,19.48
2022-10-09T14:11:31.823Z,19.46
2022-10-09T14:13:59.633Z,19.43
2022-10-09T14:16:27.704Z,19.47
2022-10-09T14:18:56.752Z,19.45
2022-10-09T14:21:24.340Z,19.50
2022-10-09T14:32:11.178Z,19.58
2022-10-09T14:34:40.089Z,19.36
2022-10-09T14:37:18.961Z,19.40
2022-10-09T14:39:55.456Z,19.46
2022-10-09T14:42:23.110Z,19.47
2022-10-09T14:44:50.602Z,19.44
2022-10-09T14:47:18.066Z,19.36
2022-10-09T14:49:47.491Z,19.26
2022-10-09T14:52:15.037Z,19.27
2022-10-09T14:54:42.507Z,19.30
2022-10-09T14:57:09.997Z,19.25
2022-10-09T14:59:37.503Z,19.09
2022-10-09T15:02:06.858Z,19.04
2022-10-09T15:04:34.611Z,19.12
2022-10-09T15:07:03.458Z,19.08
2022-10-09T15:09:30.949Z,19.04
2022-10-09T15:11:58.421Z,18.88
2022-10-09T15:14:25.957Z,18.96
2022-10-09T15:16:53.438Z,18.95
2022-10-09T15:19:20.933Z,18.99
2022-10-09T15:21:48.390Z,18.97
2022-10-09T15:24:17.242Z,18.83
2022-10-09T15:26:44.750Z,18.75
2022-10-09T15:29:12.973Z,18.77
2022-10-09T15:31:42.063Z,18.78
2022-10-09T15:34:16.639Z,18.74
2022-10-09T15:36:45.664Z,18.74
2022-10-09T15:39:13.701Z,18.71
2022-10-09T15:41:43.810Z,18.53
2022-10-09T15:44:15.952Z,18.55
2022-10-09T15:46:43.436Z,18.40
2022-10-09T15:49:11.181Z,18.32
2022-10-09T15:51:38.942Z,18.10
2022-10-09T15:54:07.053Z,17.97
2022-10-09T15:56:39.459Z,18.03
2022-10-09T15:59:11.436Z,18.03
2022-10-09T16:01:38.974Z,17.81
2022-10-09T16:04:06.539Z,17.79
2022-10-09T16:06:34.017Z,17.81
2022-10-09T16:09:03.861Z,17.73
2022-10-09T16:11:31.761Z,17.64
2022-10-09T16:14:00.388Z,17.63
2022-10-09T16:16:29.221Z,17.54
2022-10-09T16:18:57.464Z,17.34
2022-10-09T16:21:27.994Z,17.45
2022-10-09T16:23:59.135Z,17.37
2022-10-09T16:26:28.737Z,17.27
2022-10-09T16:28:56.434Z,17.06
2022-10-09T16:31:25.869Z,16.86
2022-10-09T16:33:58.154Z,16.77
2022-10-09T16:36:25.662Z,16.93
2022-10-09T16:38:53.625Z,16.90
2022-10-09T16:41:22.505Z,16.79
2022-10-09T16:43:51.809Z,16.73
2022-10-09T16:46:23.138Z,16.77
2022-10-09T16:48:51.669Z,16.90
2022-10-09T16:51:24.154Z,16.82
2022-10-09T16:53:52.556Z,16.67
2022-10-09T16:56:21.959Z,16.68
2022-10-09T16:58:50.142Z,16.52
2022-10-09T17:01:17.670Z,16.65
2022-10-09T17:03:45.220Z,16.48
2022-10-09T17:06:15.538Z,16.45
2022-10-09T17:08:44.336Z,16.35
2022-10-09T17:11:14.169Z,16.35
2022-10-09T17:13:42.438Z,16.18
2022-10-09T17:16:17.848Z,16.14
2022-10-09T17:18:46.866Z,16.09
2022-10-09T17:21:16.417Z,16.02
2022-10-09T17:23:46.617Z,15.95
2022-10-09T17:26:16.695Z,15.97
2022-10-09T17:28:45.051Z,15.88
2022-10-09T17:31:15.342Z,16.02
2022-10-09T17:33:45.913Z,15.83
2022-10-09T17:36:15.551Z,15.82
2022-10-09T17:38:43.445Z,15.68
2022-10-09T17:41:16.645Z,15.86
2022-10-09T17:43:44.372Z,15.85
2022-10-09T17:46:14.604Z,15.87
2022-10-09T17:48:44.812Z,16.02
2022-10-09T17:51:16.437Z,16.00
2022-10-09T17:53:44.162Z,15.87
2022-10-09T17:56:13.840Z,15.83
2022-10-09T17:58:43.677Z,16.05
2022-10-09T18:01:12.721Z,15.87
2022-10-09T18:03:40.329Z,15.73
2022-10-09T18:06:10.209Z,15.85
2022-10-09T18:08:38.439Z,15.80
2022-10-09T18:11:08.855Z,15.83
2022-10-09T18:13:39.503Z,15.69
2022-10-09T18:16:08.194Z,15.84
2022-10-09T18:18:36.133Z,15.87
2022-10-09T18:21:05.256Z,15.72
2022-10-09T18:23:32.888Z,15.62
2022-10-09T18:26:00.903Z,15.53
2022-10-09T18:31:05.545Z,15.38
2022-10-09T18:33:33.217Z,15.26
2022-10-09T18:36:04.657Z,15.43
2022-10-09T18:38:32.471Z,15.34
2022-10-09T18:41:00.304Z,15.37
2022-10-09T18:43:28.033Z,15.27
2022-10-09T18:45:56.060Z,15.19
2022-10-09T18:48:25.052Z,15.20
2022-10-09T18:50:52.773Z,15.34
2022-10-09T18:53:20.386Z,15.21
2022-10-09T18:55:47.921Z,15.07
2022-10-09T18:58:16.101Z,15.16
2022-10-09T19:00:43.784Z,15.29
2022-10-09T19:03:11.313Z,15.21
2022-10-09T19:05:40.274Z,15.14
2022-10-09T19:08:08.025Z,15.28
2022-10-09T19:10:35.524Z,15.31
2022-10-09T19:13:03.073Z,15.22
2022-10-09T19:15:30.571Z,14.97
2022-10-09T19:17:58.056Z,14.96
2022-10-09T19:20:28.762Z,14.97
2022-10-09T19:22:57.708Z,15.04
2022-10-09T19:25:25.325Z,14.93
2022-10-09T19:27:52.988Z,14.76
2022-10-09T19:30:20.877Z,14.62
2022-10-09T19:32:48.511Z,14.41
2022-10-09T19:35:16.474Z,14.26
2022-10-09T19:37:44.038Z,14.21
2022-10-09T19:40:12.999Z,13.92
2022-10-09T19:42:40.564Z,13.91
2022-10-09T19:45:09.436Z,13.79
2022-10-09T19:47:36.917Z,13.67
2022-10-09T19:50:04.772Z,13.64
2022-10-09T19:52:32.350Z,13.66
2022-10-09T19:54:59.771Z,13.49
2022-10-09T19:57:28.773Z,13.67
2022-10-09T19:59:56.257Z,13.88
2022-10-09T20:02:23.774Z,14.04
2022-10-09T20:04:51.397Z,13.94
2022-10-09T20:07:18.933Z,14.06
2022-10-09T20:09:46.437Z,14.29
2022-10-09T20:12:13.975Z,14.27
2022-10-09T20:14:42.825Z,14.10
2022-10-09T20:17:10.362Z,14.07
2022-10-09T20:19:39.489Z,14.15
2022-10-09T20:22:09.675Z,14.19
2022-10-09T20:24:37.317Z,14.23
2022-10-09T20:27:04.868Z,14.18
2022-10-09T20:29:32.322Z,14.30
2022-10-09T20:32:01.144Z,14.12
2022-10-09T20:34:28.875Z,13.91
2022-10-09T20:36:56.659Z,14.03
2022-10-09T20:39:24.129Z,14.18
2022-10-09T20:41:52.033Z,14.16
2022-10-09T20:44:19.685Z,14.01
2022-10-09T20:46:47.304Z,14.31
2022-10-09T20:49:16.478Z,14.27
2022-10-09T20:51:44.057Z,14.11
2022-10-09T20:54:17.106Z,14.23
2022-10-09T20:56:45.273Z,14.16
2022-10-09T20:59:12.896Z,14.31
2022-10-09T21:01:40.404Z,14.27
2022-10-09T21:04:10.236Z,14.27
2022-10-09T21:06:39.587Z,14.01
2022-10-09T21:09:07.312Z,13.84
2022-10-09T21:11:35.457Z,13.81
2022-10-09T21:14:03.840Z,13.60
2022-10-09T21:16:31.519Z,13.62
2022-10-09T21:19:01.070Z,13.52
2022-10-09T21:21:29.832Z,13.40
2022-10-09T21:24:00.231Z,13.30
2022-10-09T21:26:29.282Z,13.29
2022-10-09T21:29:00.025Z,13.23
2022-10-09T21:31:29.504Z,13.29
2022-10-09T21:33:57.360Z,13.42
2022-10-09T21:36:33.651Z,13.55
2022-10-09T21:39:02.528Z,13.64
2022-10-09T21:41:30.073Z,13.45
2022-10-09T21:43:57.561Z,13.54
2022-10-09T21:46:25.094Z,13.61
2022-10-09T21:48:52.590Z,13.54
2022-10-09T21:51:20.099Z,13.51
2022-10-09T21:53:47.768Z,13.55
2022-10-09T21:56:17.453Z,13.91
2022-10-09T21:58:48.930Z,14.07
2022-10-09T22:01:16.913Z,14.06
2022-10-09T22:03:44.536Z,14.15
2022-10-09T22:06:18.967Z,14.04
2022-10-09T22:08:47.749Z,14.14
2022-10-09T22:11:17.504Z,14.26
2022-10-09T22:13:45.543Z,14.31
2022-10-09T22:16:14.955Z,14.51
2022-10-09T22:18:43.059Z,14.44
2022-10-09T22:21:12.422Z,14.41
2022-10-09T22:23:40.165Z,14.52
2022-10-09T22:26:09.965Z,14.64
2022-10-09T22:28:38.931Z,14.56
2022-10-09T22:31:09.702Z,14.47
2022-10-09T22:33:37.339Z,14.61
2022-10-09T22:36:10.621Z,14.51
2022-10-09T22:38:38.930Z,14.58
2022-10-09T22:41:09.317Z,14.52
2022-10-09T22:43:37.733Z,14.57
2022-10-09T22:46:11.862Z,14.65
2022-10-09T22:48:40.377Z,14.43
2022-10-09T22:51:10.614Z,14.44
2022-10-09T22:53:39.724Z,14.41
2022-10-09T22:56:07.996Z,14.54
2022-10-09T22:58:35.923Z,14.43
2022-10-09T23:01:08.554Z,14.22
2022-10-09T23:03:36.486Z,14.18
2022-10-09T23:06:08.829Z,14.28
2022-10-09T23:08:37.653Z,14.41
2022-10-09T23:11:05.217Z,14.35
2022-10-09T23:13:32.696Z,14.50
2022-10-09T23:16:01.037Z,14.57
2022-10-09T23:18:30.257Z,14.47
2022-10-09T23:20:57.873Z,14.37
2022-10-09T23:23:25.493Z,14.35
2022-10-09T23:25:52.948Z,14.49
2022-10-09T23:28:20.430Z,14.48
2022-10-09T23:30:48.042Z,14.57
2022-10-09T23:33:15.601Z,14.68
2022-10-09T23:35:44.565Z,14.66
2022-10-09T23:38:12.034Z,14.74
2022-10-09T23:40:39.509Z,14.71
2022-10-09T23:43:06.991Z,14.63
2022-10-09T23:45:34.565Z,14.60
2022-10-09T23:48:02.063Z,14.57
2022-10-09T23:50:29.516Z,14.48
2022-10-09T23:52:58.412Z,14.30
2022-10-09T23:55:25.866Z,14.11
2022-10-09T23:57:53.359Z,14.21
